createdAt,value
2023-04-26T00:01:20.612Z,99004.94
2023-04-26T00:03:47.465Z,99000.34
2023-04-26T00:06:14.783Z,99004.88
2023-04-26T00:08:43.268Z,99010.66
2023-04-26T00:11:10.399Z,99009.34
2023-04-26T00:13:39.574Z,99018.06
2023-04-26T00:16:06.812Z,99028.69
2023-04-26T00:18:33.483Z,99033.63
2023-04-26T00:21:00.162Z,99021.75
2023-04-26T00:23:27.091Z,99025.56
2023-04-26T00:25:53.746Z,99025.31
2023-04-26T00:28:20.452Z,99030.53
2023-04-26T00:30:48.934Z,99040.00
2023-04-26T00:33:15.764Z,99029.75
2023-04-26T00:35:42.726Z,99038.84
2023-04-26T00:38:09.794Z,99031.13
2023-04-26T00:40:36.732Z,99033.19
2023-04-26T00:43:05.423Z,99028.78
2023-04-26T00:45:32.354Z,99035.22
2023-04-26T00:48:00.844Z,99042.41
2023-04-26T00:50:27.996Z,99038.38
2023-04-26T00:52:56.053Z,99045.03
2023-04-26T00:55:23.333Z,99047.31
2023-04-26T00:57:50.064Z,99046.28
2023-04-26T01:00:16.949Z,99046.72
2023-04-26T01:02:44.497Z,99054.03
2023-04-26T01:05:11.507Z,99055.66
2023-04-26T01:07:41.068Z,99057.94
2023-04-26T01:10:09.530Z,99061.84
2023-04-26T01:12:37.467Z,99058.59
2023-04-26T01:15:05.576Z,99059.34
2023-04-26T01:17:32.306Z,99052.19
2023-04-26T01:19:59.026Z,99055.06
2023-04-26T01:22:28.648Z,99051.81
2023-04-26T01:24:56.514Z,99051.41
2023-04-26T01:27:23.187Z,99051.19
2023-04-26T01:29:49.887Z,99057.56
2023-04-26T01:32:16.733Z,99056.94
2023-04-26T01:34:43.515Z,99062.09
2023-04-26T01:37:13.233Z,99065.34
2023-04-26T01:39:39.926Z,99067.44
2023-04-26T01:42:06.585Z,99077.47
2023-04-26T01:44:33.274Z,99072.75
2023-04-26T01:47:01.601Z,99067.69
2023-04-26T01:49:31.372Z,99076.63
2023-04-26T01:51:58.803Z,99082.41
2023-04-26T01:54:25.625Z,99077.53
2023-04-26T01:56:55.501Z,99079.19
2023-04-26T01:59:22.231Z,99087.16
2023-04-26T02:01:49.113Z,99086.34
2023-04-26T02:04:15.793Z,99092.94
2023-04-26T02:06:45.355Z,99085.72
2023-04-26T02:09:12.279Z,99075.94
2023-04-26T02:11:40.402Z,99079.81
2023-04-26T02:14:07.088Z,99080.19
2023-04-26T02:16:33.917Z,99085.31
2023-04-26T02:19:00.717Z,99075.88
2023-04-26T02:21:28.403Z,99076.28
2023-04-26T02:23:55.125Z,99072.44
2023-04-26T02:26:21.860Z,99059.13
2023-04-26T02:28:48.610Z,99071.44
2023-04-26T02:31:15.383Z,99063.84
2023-04-26T02:33:42.104Z,99077.03
2023-04-26T02:36:09.582Z,99074.78
2023-04-26T02:38:36.783Z,99075.63
2023-04-26T02:41:05.213Z,99075.22
2023-04-26T02:43:32.986Z,99077.66
2023-04-26T02:46:01.159Z,99080.13
2023-04-26T02:48:28.279Z,99087.50
2023-04-26T02:50:55.120Z,99083.47
2023-04-26T02:53:22.302Z,99078.38
2023-04-26T02:55:49.111Z,99079.59
2023-04-26T02:58:15.834Z,99085.53
2023-04-26T03:00:47.305Z,99091.06
2023-04-26T03:03:14.990Z,99089.44
2023-04-26T03:05:41.905Z,99097.63
2023-04-26T03:08:09.204Z,99101.13
2023-04-26T03:10:36.570Z,99103.16
2023-04-26T03:13:04.795Z,99098.88
2023-04-26T03:15:31.700Z,99100.50
2023-04-26T03:18:01.605Z,99102.72
2023-04-26T03:20:28.314Z,99101.72
2023-04-26T03:22:57.224Z,99102.94
2023-04-26T03:25:23.915Z,99108.06
2023-04-26T03:27:50.558Z,99108.22
2023-04-26T03:30:18.013Z,99112.75
2023-04-26T03:32:45.200Z,99118.47
2023-04-26T03:35:12.104Z,99119.09
2023-04-26T03:37:41.878Z,99119.25
2023-04-26T03:40:12.460Z,99121.53
2023-04-26T03:42:39.375Z,99125.84
2023-04-26T03:45:06.792Z,99126.66
2023-04-26T03:47:35.174Z,99112.16
2023-04-26T03:50:01.948Z,99110.88
2023-04-26T03:52:28.681Z,99127.47
2023-04-26T03:54:55.384Z,99141.03
2023-04-26T03:57:22.229Z,99136.28
2023-04-26T03:59:50.243Z,99138.56
2023-04-26T04:02:19.365Z,99146.75
2023-04-26T04:04:46.557Z,99152.09
2023-04-26T04:07:16.802Z,99150.88
2023-04-26T04:09:43.492Z,99151.25
2023-04-26T04:12:10.205Z,99146.75
2023-04-26T04:14:37.158Z,99152.91
2023-04-26T04:17:04.010Z,99148.81
2023-04-26T04:19:38.720Z,99154.31
2023-04-26T04:22:05.807Z,99159.25
2023-04-26T04:24:34.344Z,99162.31
2023-04-26T04:27:01.613Z,99160.88
2023-04-26T04:29:28.310Z,99168.63
2023-04-26T04:31:55.732Z,99171.53
2023-04-26T04:34:23.936Z,99174.78
2023-04-26T04:36:51.124Z,99180.56
2023-04-26T04:39:17.941Z,99185.88
2023-04-26T04:41:48.388Z,99184.59
2023-04-26T04:44:17.635Z,99191.16
2023-04-26T04:46:44.813Z,99198.09
2023-04-26T04:49:12.675Z,99191.09
2023-04-26T04:51:39.732Z,99188.81
2023-04-26T04:54:24.891Z,99194.72
2023-04-26T04:56:51.994Z,99187.38
2023-04-26T04:59:19.213Z,99192.41
2023-04-26T05:01:47.826Z,99191.38
2023-04-26T05:04:15.851Z,99184.09
2023-04-26T05:06:43.869Z,99187.81
2023-04-26T05:09:11.497Z,99185.06
2023-04-26T05:11:38.315Z,99186.63
2023-04-26T05:14:07.184Z,99194.66
2023-04-26T05:16:33.853Z,99194.16
2023-04-26T05:19:02.496Z,99195.91
2023-04-26T05:21:29.512Z,99196.63
2023-04-26T05:23:56.812Z,99207.03
2023-04-26T05:26:23.490Z,99207.69
2023-04-26T05:29:10.953Z,99201.72
2023-04-26T05:31:59.132Z,99202.97
2023-04-26T05:34:41.791Z,99209.16
2023-04-26T05:37:12.024Z,99205.44
2023-04-26T05:39:38.675Z,99207.25
2023-04-26T05:42:06.367Z,99217.06
2023-04-26T05:44:33.239Z,99220.25
2023-04-26T05:46:59.959Z,99216.16
2023-04-26T05:49:27.071Z,99220.97
2023-04-26T05:51:53.709Z,99222.00
2023-04-26T05:54:20.444Z,99222.63
2023-04-26T05:56:48.326Z,99218.47
2023-04-26T05:59:15.032Z,99221.50
2023-04-26T06:01:41.716Z,99223.38
2023-04-26T06:04:08.993Z,99231.13
2023-04-26T06:06:55.911Z,99229.94
2023-04-26T06:09:22.677Z,99234.19
2023-04-26T06:11:49.393Z,99240.13
2023-04-26T06:14:29.272Z,99246.75
2023-04-26T06:17:01.175Z,99247.19
2023-04-26T06:19:30.274Z,99241.38
2023-04-26T06:21:57.323Z,99251.19
2023-04-26T06:24:27.244Z,99250.38
2023-04-26T06:26:53.951Z,99252.63
2023-04-26T06:29:21.906Z,99256.38
2023-04-26T06:31:48.910Z,99258.94
2023-04-26T06:34:16.301Z,99260.84
2023-04-26T06:36:42.994Z,99274.06
2023-04-26T06:39:11.405Z,99262.28
2023-04-26T06:41:39.153Z,99269.91
2023-04-26T06:44:06.077Z,99274.53
2023-04-26T06:46:32.940Z,99278.63
2023-04-26T06:49:01.615Z,99272.59
2023-04-26T06:51:29.755Z,99272.47
2023-04-26T06:53:59.073Z,99261.03
2023-04-26T06:56:25.860Z,99272.47
2023-04-26T06:59:19.025Z,99278.28
2023-04-26T07:01:45.885Z,99275.94
2023-04-26T07:04:12.808Z,99273.88
2023-04-26T07:06:39.689Z,99272.47
2023-04-26T07:09:06.466Z,99280.44
2023-04-26T07:11:33.193Z,99274.81
2023-04-26T07:13:59.910Z,99279.69
2023-04-26T07:16:26.928Z,99289.72
2023-04-26T07:18:53.928Z,99275.47
2023-04-26T07:21:20.546Z,99270.44
2023-04-26T07:23:47.187Z,99274.03
2023-04-26T07:26:13.785Z,99276.22
2023-04-26T07:28:40.565Z,99273.47
2023-04-26T07:31:09.199Z,99274.44
2023-04-26T07:33:37.092Z,99286.91
2023-04-26T07:36:04.056Z,99278.47
2023-04-26T07:38:30.948Z,99284.47
2023-04-26T07:40:58.324Z,99283.09
2023-04-26T07:43:26.458Z,99281.47
2023-04-26T07:45:53.380Z,99288.13
2023-04-26T07:48:20.093Z,99288.00
2023-04-26T07:50:46.769Z,99288.47
2023-04-26T07:53:13.455Z,99286.88
2023-04-26T07:55:40.119Z,99285.88
2023-04-26T07:58:06.772Z,99290.09
2023-04-26T08:00:33.515Z,99285.03
2023-04-26T08:03:00.414Z,99289.59
2023-04-26T08:05:28.054Z,99282.94
2023-04-26T08:07:54.795Z,99284.38
2023-04-26T08:10:21.519Z,99290.94
2023-04-26T08:12:48.097Z,99287.53
2023-04-26T08:15:14.824Z,99278.97
2023-04-26T08:17:43.136Z,99278.16
2023-04-26T08:20:10.242Z,99281.03
2023-04-26T08:22:36.946Z,99272.47
2023-04-26T08:25:05.714Z,99277.19
2023-04-26T08:27:34.500Z,99268.00
2023-04-26T08:30:01.245Z,99272.63
2023-04-26T08:32:27.960Z,99270.56
2023-04-26T08:34:55.395Z,99271.34
2023-04-26T08:37:22.403Z,99277.03
2023-04-26T08:39:49.058Z,99283.56
2023-04-26T08:42:17.160Z,99278.56
2023-04-26T08:44:45.166Z,99276.91
2023-04-26T08:47:25.863Z,99287.75
2023-04-26T08:49:59.806Z,99288.28
2023-04-26T08:52:31.487Z,99296.06
2023-04-26T08:54:59.499Z,99295.34
2023-04-26T08:57:26.808Z,99284.63
2023-04-26T08:59:56.321Z,99291.69
2023-04-26T09:02:23.762Z,99294.13
2023-04-26T09:04:51.441Z,99294.25
2023-04-26T09:07:24.240Z,99291.22
2023-04-26T09:09:53.817Z,99297.31
2023-04-26T09:12:21.402Z,99305.09
2023-04-26T09:14:48.322Z,99288.31
2023-04-26T09:17:28.232Z,99292.66
2023-04-26T09:19:55.207Z,99288.97
2023-04-26T09:22:35.825Z,99300.06
2023-04-26T09:25:07.217Z,99295.13
2023-04-26T09:27:39.375Z,99299.06
2023-04-26T09:30:12.427Z,99291.56
2023-04-26T09:33:03.091Z,99296.13
2023-04-26T09:35:37.711Z,99293.25
2023-04-26T09:38:14.774Z,99287.56
2023-04-26T09:40:45.411Z,99293.25
2023-04-26T09:43:14.352Z,99292.91
2023-04-26T09:45:54.777Z,99288.72
2023-04-26T09:48:28.779Z,99290.19
2023-04-26T09:50:57.311Z,99287.59
2023-04-26T09:53:38.971Z,99273.22
2023-04-26T09:56:13.514Z,99266.91
2023-04-26T09:58:58.918Z,99276.66
2023-04-26T10:01:29.571Z,99262.56
2023-04-26T10:04:07.385Z,99272.50
2023-04-26T10:06:34.278Z,99271.75
2023-04-26T10:09:01.996Z,99270.25
2023-04-26T10:11:28.840Z,99261.41
2023-04-26T10:13:55.805Z,99263.81
2023-04-26T10:16:22.734Z,99273.25
2023-04-26T10:18:51.183Z,99274.56
2023-04-26T10:21:20.220Z,99262.03
2023-04-26T10:23:49.006Z,99267.00
2023-04-26T10:26:53.079Z,99264.94
2023-04-26T10:29:20.962Z,99251.88
2023-04-26T10:32:03.990Z,99261.94
2023-04-26T10:34:32.429Z,99248.03
2023-04-26T10:37:18.349Z,99249.97
2023-04-26T10:39:46.635Z,99253.06
2023-04-26T10:42:26.579Z,99249.09
2023-04-26T10:45:00.807Z,99242.94
2023-04-26T10:47:37.521Z,99243.34
2023-04-26T10:50:11.471Z,99243.38
2023-04-26T10:53:01.028Z,99241.78
2023-04-26T10:55:41.835Z,99234.25
2023-04-26T10:58:30.312Z,99243.44
2023-04-26T11:01:18.229Z,99243.84
2023-04-26T11:04:07.462Z,99246.41
2023-04-26T11:06:47.514Z,99245.72
2023-04-26T11:09:38.191Z,99235.41
2023-04-26T11:12:12.546Z,99235.16
2023-04-26T11:14:41.711Z,99233.13
2023-04-26T11:17:09.836Z,99228.53
2023-04-26T11:19:36.966Z,99227.66
2023-04-26T11:22:06.895Z,99231.91
2023-04-26T11:24:36.929Z,99220.56
2023-04-26T11:27:10.958Z,99227.06
2023-04-26T11:29:38.383Z,99235.78
2023-04-26T11:32:05.330Z,99231.59
2023-04-26T11:34:32.376Z,99240.31
2023-04-26T11:36:59.388Z,99234.84
2023-04-26T11:39:26.092Z,99238.81
2023-04-26T11:41:57.405Z,99236.38
2023-04-26T11:44:24.037Z,99237.25
2023-04-26T11:46:50.915Z,99243.59
2023-04-26T11:49:17.970Z,99234.34
2023-04-26T11:51:47.818Z,99246.59
2023-04-26T11:54:30.880Z,99245.34
2023-04-26T11:56:58.552Z,99244.53
2023-04-26T11:59:26.609Z,99259.66
2023-04-26T12:01:53.492Z,99258.16
2023-04-26T12:04:20.544Z,99264.94
2023-04-26T12:06:47.420Z,99261.41
2023-04-26T12:09:14.129Z,99269.53
2023-04-26T12:11:40.871Z,99246.41
2023-04-26T12:14:11.539Z,99247.75
2023-04-26T12:16:38.426Z,99238.69
2023-04-26T12:19:07.318Z,99245.59
2023-04-26T12:21:41.536Z,99251.66
2023-04-26T12:24:08.332Z,99244.75
2023-04-26T12:26:44.958Z,99239.03
2023-04-26T12:29:11.718Z,99241.44
2023-04-26T12:31:40.570Z,99239.16
2023-04-26T12:34:08.168Z,99237.56
2023-04-26T12:36:35.238Z,99246.69
2023-04-26T12:39:05.417Z,99236.69
2023-04-26T12:41:32.219Z,99240.69
2023-04-26T12:43:58.884Z,99243.34
2023-04-26T12:46:26.208Z,99254.84
2023-04-26T12:48:53.422Z,99255.66
2023-04-26T12:51:20.069Z,99249.69
2023-04-26T12:53:46.723Z,99261.72
2023-04-26T12:56:13.368Z,99265.06
2023-04-26T12:58:40.058Z,99263.78
2023-04-26T13:01:06.745Z,99263.34
2023-04-26T13:03:33.637Z,99275.22
2023-04-26T13:06:00.349Z,99264.81
2023-04-26T13:08:26.981Z,99261.53
2023-04-26T13:10:53.623Z,99268.75
2023-04-26T13:13:22.061Z,99253.84
2023-04-26T13:15:53.328Z,99268.84
2023-04-26T13:18:19.997Z,99253.06
2023-04-26T13:20:47.947Z,99253.06
2023-04-26T13:23:14.676Z,99256.66
2023-04-26T13:25:41.544Z,99252.66
2023-04-26T13:28:08.259Z,99248.81
2023-04-26T13:30:35.076Z,99246.13
2023-04-26T13:33:01.898Z,99250.44
2023-04-26T13:35:28.610Z,99257.69
2023-04-26T13:37:55.522Z,99254.22
2023-04-26T13:40:22.788Z,99250.06
2023-04-26T13:42:49.482Z,99255.78
2023-04-26T13:45:17.614Z,99258.38
2023-04-26T13:47:46.070Z,99253.28
2023-04-26T13:50:13.021Z,99252.13
2023-04-26T13:52:39.708Z,99254.00
2023-04-26T13:55:06.911Z,99249.44
2023-04-26T13:57:33.554Z,99245.00
2023-04-26T14:00:00.213Z,99249.41
2023-04-26T14:02:27.445Z,99257.94
2023-04-26T14:04:54.423Z,99270.91
2023-04-26T14:07:21.416Z,99268.72
2023-04-26T14:09:48.241Z,99277.06
2023-04-26T14:12:14.903Z,99274.03
2023-04-26T14:14:41.565Z,99256.41
2023-04-26T14:17:08.235Z,99263.09
2023-04-26T14:19:34.897Z,99260.84
2023-04-26T14:22:01.464Z,99252.53
2023-04-26T14:24:28.127Z,99243.00
2023-04-26T14:26:54.951Z,99246.97
2023-04-26T14:29:21.732Z,99249.00
2023-04-26T14:31:48.538Z,99242.03
2023-04-26T14:34:15.168Z,99247.50
2023-04-26T14:36:41.848Z,99237.75
2023-04-26T14:39:08.483Z,99229.63
2023-04-26T14:41:35.117Z,99233.25
2023-04-26T14:44:01.723Z,99230.00
2023-04-26T14:46:28.436Z,99225.63
2023-04-26T14:48:55.480Z,99226.16
2023-04-26T14:51:22.140Z,99232.94
2023-04-26T14:53:48.770Z,99241.34
2023-04-26T14:56:15.411Z,99235.84
2023-04-26T14:58:42.048Z,99234.16
2023-04-26T15:01:09.452Z,99234.16
2023-04-26T15:03:36.505Z,99233.53
2023-04-26T15:06:03.399Z,99229.50
2023-04-26T15:08:30.143Z,99234.88
2023-04-26T15:10:57.745Z,99238.59
2023-04-26T15:13:24.480Z,99234.81
2023-04-26T15:15:51.425Z,99231.88
2023-04-26T15:18:18.230Z,99232.47
2023-04-26T15:20:44.912Z,99234.06
2023-04-26T15:23:11.631Z,99244.41
2023-04-26T15:25:38.301Z,99236.25
2023-04-26T15:28:05.282Z,99230.03
2023-04-26T15:30:32.006Z,99228.63
2023-04-26T15:32:58.904Z,99231.06
2023-04-26T15:35:25.797Z,99241.44
2023-04-26T15:37:54.044Z,99241.09
2023-04-26T15:40:24.712Z,99244.00
2023-04-26T15:42:52.093Z,99245.66
2023-04-26T15:45:19.367Z,99246.16
2023-04-26T15:47:46.444Z,99249.47
2023-04-26T15:50:13.512Z,99246.63
2023-04-26T15:52:40.899Z,99243.72
2023-04-26T15:55:07.950Z,99243.00
2023-04-26T15:57:34.802Z,99233.88
2023-04-26T16:00:01.906Z,99230.94
2023-04-26T16:02:31.259Z,99237.72
2023-04-26T16:04:58.127Z,99242.28
2023-04-26T16:07:24.857Z,99237.66
2023-04-26T16:09:51.556Z,99236.25
2023-04-26T16:12:18.188Z,99237.84
2023-04-26T16:14:44.917Z,99237.28
2023-04-26T16:17:11.656Z,99237.53
2023-04-26T16:19:38.339Z,99236.47
2023-04-26T16:22:05.051Z,99239.47
2023-04-26T16:24:31.699Z,99243.38
2023-04-26T16:26:58.609Z,99248.94
2023-04-26T16:29:25.334Z,99245.47
2023-04-26T16:31:52.795Z,99241.44
2023-04-26T16:34:20.035Z,99244.94
2023-04-26T16:36:46.859Z,99241.44
2023-04-26T16:39:15.860Z,99238.19
2023-04-26T16:41:42.871Z,99242.34
2023-04-26T16:44:09.510Z,99241.63
2023-04-26T16:46:36.463Z,99243.75
2023-04-26T16:49:09.386Z,99246.81
2023-04-26T16:51:37.401Z,99245.00
2023-04-26T16:54:04.360Z,99254.06
2023-04-26T16:56:32.205Z,99246.63
2023-04-26T16:58:59.196Z,99248.13
2023-04-26T17:01:26.179Z,99247.41
2023-04-26T17:03:53.237Z,99253.75
2023-04-26T17:06:20.428Z,99256.44
2023-04-26T17:08:47.511Z,99255.41
2023-04-26T17:11:15.522Z,99257.97
2023-04-26T17:13:42.306Z,99258.00
2023-04-26T17:16:09.632Z,99257.44
2023-04-26T17:18:37.275Z,99257.78
2023-04-26T17:21:07.250Z,99269.56
2023-04-26T17:23:34.492Z,99273.66
2023-04-26T17:26:02.024Z,99275.75
2023-04-26T17:28:28.986Z,99281.13
2023-04-26T17:30:55.658Z,99274.81
2023-04-26T17:33:22.411Z,99285.03
2023-04-26T17:35:49.244Z,99286.88
2023-04-26T17:38:15.979Z,99287.94
2023-04-26T17:40:42.665Z,99292.44
2023-04-26T17:43:09.314Z,99286.22
2023-04-26T17:45:36.066Z,99290.94
2023-04-26T17:48:03.031Z,99289.75
2023-04-26T17:50:30.362Z,99297.66
2023-04-26T17:52:57.106Z,99298.53
2023-04-26T17:55:23.930Z,99307.91
2023-04-26T17:57:50.657Z,99310.03
2023-04-26T18:00:17.854Z,99306.34
2023-04-26T18:02:44.622Z,99311.50
2023-04-26T18:05:11.847Z,99319.53
2023-04-26T18:07:38.636Z,99319.59
2023-04-26T18:10:06.620Z,99311.41
2023-04-26T18:12:33.321Z,99317.53
2023-04-26T18:14:59.979Z,99317.94
2023-04-26T18:17:27.048Z,99325.00
2023-04-26T18:19:53.777Z,99329.69
2023-04-26T18:22:20.522Z,99328.59
2023-04-26T18:24:47.244Z,99344.56
2023-04-26T18:27:14.165Z,99336.94
2023-04-26T18:29:41.478Z,99346.81
2023-04-26T18:32:09.376Z,99350.00
2023-04-26T18:34:36.053Z,99353.31
2023-04-26T18:37:02.942Z,99353.06
2023-04-26T18:39:30.397Z,99356.19
2023-04-26T18:41:57.062Z,99365.03
2023-04-26T18:44:23.734Z,99364.75
2023-04-26T18:46:52.277Z,99371.13
2023-04-26T18:49:19.061Z,99369.91
2023-04-26T18:51:45.723Z,99380.41
2023-04-26T18:54:12.420Z,99385.34
2023-04-26T18:56:39.538Z,99377.94
2023-04-26T18:59:06.212Z,99381.94
2023-04-26T19:01:32.959Z,99391.81
2023-04-26T19:04:00.063Z,99392.75
2023-04-26T19:06:28.239Z,99389.31
2023-04-26T19:08:54.888Z,99387.53
2023-04-26T19:11:21.604Z,99394.44
2023-04-26T19:13:48.211Z,99394.13
2023-04-26T19:16:14.972Z,99395.75
2023-04-26T19:18:41.945Z,99392.16
2023-04-26T19:21:09.243Z,99397.81
2023-04-26T19:23:36.487Z,99399.47
2023-04-26T19:26:12.277Z,99396.41
2023-04-26T19:28:39.361Z,99402.25
2023-04-26T19:31:06.099Z,99401.31
2023-04-26T19:33:32.829Z,99408.97
2023-04-26T19:35:59.542Z,99398.69
2023-04-26T19:38:26.278Z,99416.81
2023-04-26T19:40:53.228Z,99414.63
2023-04-26T19:43:20.086Z,99418.47
2023-04-26T19:45:46.879Z,99422.16
2023-04-26T19:48:13.675Z,99427.91
2023-04-26T19:50:44.575Z,99426.31
2023-04-26T19:53:13.185Z,99429.94
2023-04-26T19:55:41.031Z,99439.63
2023-04-26T19:58:08.383Z,99428.75
2023-04-26T20:00:39.013Z,99437.00
2023-04-26T20:03:06.455Z,99431.22
2023-04-26T20:05:33.832Z,99433.56
2023-04-26T20:08:00.868Z,99427.16
2023-04-26T20:10:31.103Z,99437.09
2023-04-26T20:12:58.791Z,99436.69
2023-04-26T20:15:25.516Z,99439.44
2023-04-26T20:17:52.601Z,99436.78
2023-04-26T20:20:19.540Z,99446.28
2023-04-26T20:22:46.278Z,99436.63
2023-04-26T20:25:13.031Z,99440.53
2023-04-26T20:27:39.677Z,99440.72
2023-04-26T20:30:07.329Z,99439.72
2023-04-26T20:32:34.049Z,99444.28
2023-04-26T20:35:00.737Z,99443.84
2023-04-26T20:37:27.774Z,99458.41
2023-04-26T20:39:54.485Z,99449.19
2023-04-26T20:42:22.080Z,99454.53
2023-04-26T20:44:48.705Z,99453.31
2023-04-26T20:47:15.788Z,99459.66
2023-04-26T20:49:42.381Z,99456.38
2023-04-26T20:52:09.063Z,99451.06
2023-04-26T20:54:35.839Z,99446.97
2023-04-26T20:57:03.921Z,99456.19
2023-04-26T20:59:30.910Z,99462.34
2023-04-26T21:01:57.828Z,99460.91
2023-04-26T21:04:24.830Z,99458.47
2023-04-26T21:06:51.685Z,99464.59
2023-04-26T21:09:18.351Z,99463.78
2023-04-26T21:11:44.996Z,99471.34
2023-04-26T21:14:13.717Z,99468.06
2023-04-26T21:16:40.671Z,99483.47
2023-04-26T21:19:08.048Z,99490.25
2023-04-26T21:21:35.143Z,99487.19
2023-04-26T21:24:02.508Z,99484.91
2023-04-26T21:26:29.197Z,99485.31
2023-04-26T21:28:55.970Z,99481.81
2023-04-26T21:31:22.744Z,99494.31
2023-04-26T21:33:49.765Z,99493.72
2023-04-26T21:36:16.494Z,99499.06
2023-04-26T21:38:43.177Z,99493.31
2023-04-26T21:41:09.785Z,99500.50
2023-04-26T21:43:36.421Z,99496.19
2023-04-26T21:46:03.474Z,99496.78
2023-04-26T21:48:30.476Z,99507.25
2023-04-26T21:50:57.164Z,99508.47
2023-04-26T21:53:23.849Z,99521.38
2023-04-26T21:55:54.003Z,99518.91
2023-04-26T21:58:21.595Z,99521.34
2023-04-26T22:00:48.750Z,99532.66
2023-04-26T22:03:16.280Z,99532.00
2023-04-26T22:05:43.157Z,99535.50
2023-04-26T22:08:11.384Z,99536.97
2023-04-26T22:10:38.122Z,99535.31
2023-04-26T22:13:05.439Z,99543.91
2023-04-26T22:15:32.384Z,99546.56
2023-04-26T22:17:59.180Z,99558.25
2023-04-26T22:20:26.507Z,99559.72
2023-04-26T22:22:53.843Z,99561.09
2023-04-26T22:25:21.118Z,99561.09
2023-04-26T22:27:48.202Z,99565.00
2023-04-26T22:30:24.977Z,99560.09
2023-04-26T22:32:55.569Z,99565.66
2023-04-26T22:35:23.593Z,99569.94
2023-04-26T22:37:50.633Z,99570.56
2023-04-26T22:40:17.617Z,99558.06
2023-04-26T22:42:44.507Z,99568.94
2023-04-26T22:45:11.975Z,99569.56
2023-04-26T22:47:39.393Z,99572.38
2023-04-26T22:50:07.449Z,99570.13
2023-04-26T22:52:34.531Z,99566.63
2023-04-26T22:55:01.377Z,99567.03
2023-04-26T22:57:29.120Z,99570.72
2023-04-26T22:59:55.793Z,99566.63
2023-04-26T23:02:23.526Z,99562.50
2023-04-26T23:04:50.434Z,99576.22
2023-04-26T23:07:17.133Z,99579.44
2023-04-26T23:09:43.870Z,99575.94
2023-04-26T23:12:10.701Z,99591.75
2023-04-26T23:14:37.906Z,99592.56
2023-04-26T23:17:05.661Z,99587.06
2023-04-26T23:19:33.230Z,99601.16
2023-04-26T23:22:00.064Z,99594.00
2023-04-26T23:24:27.067Z,99599.34
2023-04-26T23:26:53.921Z,99596.06
2023-04-26T23:29:20.616Z,99591.75
2023-04-26T23:31:47.551Z,99602.81
2023-04-26T23:34:14.301Z,99602.00
2023-04-26T23:36:41.265Z,99599.31
2023-04-26T23:39:08.935Z,99604.44
2023-04-26T23:41:35.975Z,99598.25
2023-04-26T23:44:02.736Z,99598.66
2023-04-26T23:46:29.650Z,99593.75
2023-04-26T23:48:56.347Z,99594.59
2023-04-26T23:51:23.034Z,99598.06
2023-04-26T23:53:49.701Z,99603.00
2023-04-26T23:56:16.439Z,99593.94
2023-04-26T23:58:43.148Z,99593.13
